Helena, California
Current Conditions -  °F | °C
As of 2:15 AM on Thursday 23 Oct 2014 (Local Time) from KO54 Reporting Station
Broken Clouds Broken Clouds  
Wind Chill: 50°   Ceiling: 4200
Heat Index: 50°   Visibility: 2.5mi
Dew Point: 50°   Wind: 3mph
Humidity: 100%   Direction: 220°SW
Pressure: 30.05"   Gusts: NA
Location:  40.882°N, 123.084°W
Report Text: KO54 230915Z AUTO 22003KT 2 1/2SM FEW002 SCT024 BKN042 10/10 A3005 RMK AO1 P0003
Loading
Personal Weather Stations






























Interactive Weather Map
Tropical Storm Tracking
New forecast layout! Learn more

10-Day Weather Forecast

Advertisements
Track Severe Weather on mobile